sensor_id;sensor_type;location;lat;lon;timestamp;P1;durP1;ratioP1;P2;durP2;ratioP2
20525;SDS011;10421;49.142;9.232;2024-01-06T00:02:04;4.97;;;3.73;;
20525;SDS011;10421;49.142;9.232;2024-01-06T00:04:31;6.37;;;4.23;;
20525;SDS011;10421;49.142;9.232;2024-01-06T00:06:58;9.60;;;5.43;;
20525;SDS011;10421;49.142;9.232;2024-01-06T00:09:25;7.30;;;3.80;;
20525;SDS011;10421;49.142;9.232;2024-01-06T00:11:53;9.40;;;4.30;;
20525;SDS011;10421;49.142;9.232;2024-01-06T00:14:21;6.97;;;4.57;;
20525;SDS011;10421;49.142;9.232;2024-01-06T00:16:48;5.77;;;4.40;;
20525;SDS011;10421;49.142;9.232;2024-01-06T00:19:15;8.57;;;4.60;;
20525;SDS011;10421;49.142;9.232;2024-01-06T00:21:42;4.60;;;3.93;;
20525;SDS011;10421;49.142;9.232;2024-01-06T00:24:09;5.40;;;3.70;;
20525;SDS011;10421;49.142;9.232;2024-01-06T00:26:36;6.80;;;4.20;;
20525;SDS011;10421;49.142;9.232;2024-01-06T00:29:02;8.83;;;4.13;;
20525;SDS011;10421;49.142;9.232;2024-01-06T00:31:34;5.10;;;4.00;;
20525;SDS011;10421;49.142;9.232;2024-01-06T00:34:01;6.63;;;4.10;;
20525;SDS011;10421;49.142;9.232;2024-01-06T00:36:28;6.03;;;3.70;;
20525;SDS011;10421;49.142;9.232;2024-01-06T00:38:55;6.83;;;4.60;;
20525;SDS011;10421;49.142;9.232;2024-01-06T00:41:22;7.83;;;5.10;;
20525;SDS011;10421;49.142;9.232;2024-01-06T00:43:48;7.80;;;4.60;;
20525;SDS011;10421;49.142;9.232;2024-01-06T00:46:15;7.93;;;4.70;;
20525;SDS011;10421;49.142;9.232;2024-01-06T00:48:43;11.97;;;5.20;;
20525;SDS011;10421;49.142;9.232;2024-01-06T00:51:09;5.30;;;4.60;;
20525;SDS011;10421;49.142;9.232;2024-01-06T00:53:36;8.63;;;4.43;;
20525;SDS011;10421;49.142;9.232;2024-01-06T00:56:03;8.00;;;4.90;;
20525;SDS011;10421;49.142;9.232;2024-01-06T00:58:30;7.97;;;4.27;;
20525;SDS011;10421;49.142;9.232;2024-01-06T01:00:57;6.70;;;3.90;;
20525;SDS011;10421;49.142;9.232;2024-01-06T01:03:23;6.73;;;3.60;;
20525;SDS011;10421;49.142;9.232;2024-01-06T01:05:52;5.77;;;3.83;;
20525;SDS011;10421;49.142;9.232;2024-01-06T01:08:18;6.03;;;3.83;;
20525;SDS011;10421;49.142;9.232;2024-01-06T01:10:45;6.77;;;3.60;;
20525;SDS011;10421;49.142;9.232;2024-01-06T01:13:12;6.30;;;3.43;;
20525;SDS011;10421;49.142;9.232;2024-01-06T01:15:38;5.43;;;3.87;;
20525;SDS011;10421;49.142;9.232;2024-01-06T01:18:05;6.47;;;3.43;;
20525;SDS011;10421;49.142;9.232;2024-01-06T01:20:32;4.10;;;3.30;;
20525;SDS011;10421;49.142;9.232;2024-01-06T01:23:00;6.53;;;3.27;;
20525;SDS011;10421;49.142;9.232;2024-01-06T01:25:26;5.00;;;3.90;;
20525;SDS011;10421;49.142;9.232;2024-01-06T01:27:53;4.60;;;3.33;;
20525;SDS011;10421;49.142;9.232;2024-01-06T01:30:20;7.90;;;3.60;;
20525;SDS011;10421;49.142;9.232;2024-01-06T01:32:47;5.83;;;3.50;;
20525;SDS011;10421;49.142;9.232;2024-01-06T01:35:13;8.07;;;4.13;;
20525;SDS011;10421;49.142;9.232;2024-01-06T01:37:40;6.33;;;4.07;;
20525;SDS011;10421;49.142;9.232;2024-01-06T01:40:08;4.80;;;3.13;;
20525;SDS011;10421;49.142;9.232;2024-01-06T01:42:36;5.17;;;3.40;;
20525;SDS011;10421;49.142;9.232;2024-01-06T01:45:03;5.97;;;3.40;;
20525;SDS011;10421;49.142;9.232;2024-01-06T01:47:30;4.10;;;3.00;;
20525;SDS011;10421;49.142;9.232;2024-01-06T01:49:57;8.13;;;3.50;;
20525;SDS011;10421;49.142;9.232;2024-01-06T01:52:24;4.63;;;3.27;;
20525;SDS011;10421;49.142;9.232;2024-01-06T01:54:52;5.00;;;3.50;;
20525;SDS011;10421;49.142;9.232;2024-01-06T01:57:21;8.17;;;3.77;;
20525;SDS011;10421;49.142;9.232;2024-01-06T01:59:50;6.17;;;3.30;;
20525;SDS011;10421;49.142;9.232;2024-01-06T02:02:18;4.90;;;2.90;;
20525;SDS011;10421;49.142;9.232;2024-01-06T02:04:46;5.80;;;2.90;;
20525;SDS011;10421;49.142;9.232;2024-01-06T02:07:13;6.77;;;3.03;;
20525;SDS011;10421;49.142;9.232;2024-01-06T02:09:39;6.53;;;3.63;;
20525;SDS011;10421;49.142;9.232;2024-01-06T02:12:06;4.70;;;3.20;;
20525;SDS011;10421;49.142;9.232;2024-01-06T02:14:34;4.37;;;2.80;;
20525;SDS011;10421;49.142;9.232;2024-01-06T02:17:01;4.77;;;2.90;;
20525;SDS011;10421;49.142;9.232;2024-01-06T02:19:28;5.07;;;2.57;;
20525;SDS011;10421;49.142;9.232;2024-01-06T02:21:56;7.27;;;2.90;;
20525;SDS011;10421;49.142;9.232;2024-01-06T02:24:23;4.60;;;3.27;;
20525;SDS011;10421;49.142;9.232;2024-01-06T02:26:49;3.20;;;2.40;;
20525;SDS011;10421;49.142;9.232;2024-01-06T02:29:16;3.80;;;2.37;;
20525;SDS011;10421;49.142;9.232;2024-01-06T02:31:43;3.40;;;2.43;;
20525;SDS011;10421;49.142;9.232;2024-01-06T02:34:09;3.13;;;2.40;;
20525;SDS011;10421;49.142;9.232;2024-01-06T02:36:36;8.23;;;2.67;;
20525;SDS011;10421;49.142;9.232;2024-01-06T02:39:04;4.30;;;2.80;;
20525;SDS011;10421;49.142;9.232;2024-01-06T02:41:31;2.90;;;2.10;;
20525;SDS011;10421;49.142;9.232;2024-01-06T02:43:58;6.53;;;3.00;;
20525;SDS011;10421;49.142;9.232;2024-01-06T02:46:27;3.43;;;2.17;;
20525;SDS011;10421;49.142;9.232;2024-01-06T02:48:54;2.43;;;2.10;;
20525;SDS011;10421;49.142;9.232;2024-01-06T02:51:21;2.30;;;2.10;;
20525;SDS011;10421;49.142;9.232;2024-01-06T02:53:47;5.50;;;2.10;;
20525;SDS011;10421;49.142;9.232;2024-01-06T02:56:15;5.77;;;2.37;;
20525;SDS011;10421;49.142;9.232;2024-01-06T02:58:42;4.90;;;2.30;;
20525;SDS011;10421;49.142;9.232;2024-01-06T03:01:10;2.43;;;2.23;;
20525;SDS011;10421;49.142;9.232;2024-01-06T03:03:37;3.83;;;2.10;;
20525;SDS011;10421;49.142;9.232;2024-01-06T03:06:04;2.60;;;2.30;;
20525;SDS011;10421;49.142;9.232;2024-01-06T03:08:31;3.53;;;1.90;;
20525;SDS011;10421;49.142;9.232;2024-01-06T03:10:59;3.17;;;2.17;;
20525;SDS011;10421;49.142;9.232;2024-01-06T03:13:27;5.50;;;2.10;;
20525;SDS011;10421;49.142;9.232;2024-01-06T03:15:54;6.73;;;2.40;;
20525;SDS011;10421;49.142;9.232;2024-01-06T03:18:21;4.00;;;2.10;;
20525;SDS011;10421;49.142;9.232;2024-01-06T03:20:47;4.90;;;2.60;;
20525;SDS011;10421;49.142;9.232;2024-01-06T03:23:14;5.63;;;2.47;;
20525;SDS011;10421;49.142;9.232;2024-01-06T03:25:41;4.30;;;2.40;;
20525;SDS011;10421;49.142;9.232;2024-01-06T03:28:07;5.33;;;2.30;;
20525;SDS011;10421;49.142;9.232;2024-01-06T03:30:35;3.83;;;2.30;;
20525;SDS011;10421;49.142;9.232;2024-01-06T03:33:02;4.23;;;2.93;;
20525;SDS011;10421;49.142;9.232;2024-01-06T03:35:29;3.73;;;2.10;;
20525;SDS011;10421;49.142;9.232;2024-01-06T03:37:56;5.90;;;2.70;;
20525;SDS011;10421;49.142;9.232;2024-01-06T03:40:23;14.73;;;2.53;;
20525;SDS011;10421;49.142;9.232;2024-01-06T03:42:49;4.10;;;2.40;;
20525;SDS011;10421;49.142;9.232;2024-01-06T03:45:16;4.77;;;2.60;;
20525;SDS011;10421;49.142;9.232;2024-01-06T03:47:44;5.50;;;3.10;;
20525;SDS011;10421;49.142;9.232;2024-01-06T03:50:11;4.33;;;3.00;;
20525;SDS011;10421;49.142;9.232;2024-01-06T03:52:38;6.70;;;2.20;;
20525;SDS011;10421;49.142;9.232;2024-01-06T03:55:05;4.60;;;2.50;;
20525;SDS011;10421;49.142;9.232;2024-01-06T03:57:32;3.77;;;2.23;;
20525;SDS011;10421;49.142;9.232;2024-01-06T03:59:59;4.50;;;2.90;;
20525;SDS011;10421;49.142;9.232;2024-01-06T04:02:26;5.43;;;2.63;;
20525;SDS011;10421;49.142;9.232;2024-01-06T04:04:53;5.00;;;2.87;;
20525;SDS011;10421;49.142;9.232;2024-01-06T04:07:20;4.67;;;2.60;;
20525;SDS011;10421;49.142;9.232;2024-01-06T04:09:47;4.80;;;3.00;;
20525;SDS011;10421;49.142;9.232;2024-01-06T04:12:13;5.57;;;2.87;;
20525;SDS011;10421;49.142;9.232;2024-01-06T04:14:40;5.13;;;2.80;;
20525;SDS011;10421;49.142;9.232;2024-01-06T04:17:07;3.50;;;2.37;;
20525;SDS011;10421;49.142;9.232;2024-01-06T04:19:33;5.87;;;2.50;;
20525;SDS011;10421;49.142;9.232;2024-01-06T04:22:01;3.70;;;2.20;;
20525;SDS011;10421;49.142;9.232;2024-01-06T04:24:28;5.20;;;2.60;;
20525;SDS011;10421;49.142;9.232;2024-01-06T04:26:55;2.80;;;2.47;;
20525;SDS011;10421;49.142;9.232;2024-01-06T04:29:22;6.67;;;2.50;;
20525;SDS011;10421;49.142;9.232;2024-01-06T04:31:48;6.13;;;2.90;;
20525;SDS011;10421;49.142;9.232;2024-01-06T04:34:15;3.97;;;2.47;;
20525;SDS011;10421;49.142;9.232;2024-01-06T04:36:42;6.20;;;2.67;;
20525;SDS011;10421;49.142;9.232;2024-01-06T04:39:10;5.97;;;2.20;;
20525;SDS011;10421;49.142;9.232;2024-01-06T04:41:38;6.33;;;2.73;;
20525;SDS011;10421;49.142;9.232;2024-01-06T04:44:05;4.80;;;2.70;;
20525;SDS011;10421;49.142;9.232;2024-01-06T04:46:31;4.40;;;2.37;;
20525;SDS011;10421;49.142;9.232;2024-01-06T04:48:58;4.87;;;2.00;;
20525;SDS011;10421;49.142;9.232;2024-01-06T04:51:25;3.43;;;1.80;;
20525;SDS011;10421;49.142;9.232;2024-01-06T04:53:52;5.63;;;2.43;;
20525;SDS011;10421;49.142;9.232;2024-01-06T04:56:20;3.27;;;2.03;;
20525;SDS011;10421;49.142;9.232;2024-01-06T04:58:46;4.33;;;2.30;;
20525;SDS011;10421;49.142;9.232;2024-01-06T05:01:13;5.40;;;2.87;;
20525;SDS011;10421;49.142;9.232;2024-01-06T05:03:40;2.90;;;2.10;;
20525;SDS011;10421;49.142;9.232;2024-01-06T05:06:06;3.80;;;2.00;;
20525;SDS011;10421;49.142;9.232;2024-01-06T05:08:33;3.03;;;2.30;;
20525;SDS011;10421;49.142;9.232;2024-01-06T05:11:03;4.63;;;2.07;;
20525;SDS011;10421;49.142;9.232;2024-01-06T05:13:32;7.10;;;2.80;;
20525;SDS011;10421;49.142;9.232;2024-01-06T05:15:59;2.30;;;2.10;;
20525;SDS011;10421;49.142;9.232;2024-01-06T05:18:25;4.60;;;2.10;;
20525;SDS011;10421;49.142;9.232;2024-01-06T05:20:52;3.80;;;1.97;;
20525;SDS011;10421;49.142;9.232;2024-01-06T05:23:19;6.17;;;2.30;;
20525;SDS011;10421;49.142;9.232;2024-01-06T05:25:46;7.83;;;2.50;;
20525;SDS011;10421;49.142;9.232;2024-01-06T05:28:12;7.60;;;2.50;;
20525;SDS011;10421;49.142;9.232;2024-01-06T05:30:41;8.77;;;2.40;;
20525;SDS011;10421;49.142;9.232;2024-01-06T05:33:09;5.43;;;2.60;;
20525;SDS011;10421;49.142;9.232;2024-01-06T05:35:37;4.43;;;2.63;;
20525;SDS011;10421;49.142;9.232;2024-01-06T05:38:04;4.33;;;2.47;;
20525;SDS011;10421;49.142;9.232;2024-01-06T05:40:31;6.60;;;2.60;;
20525;SDS011;10421;49.142;9.232;2024-01-06T05:42:57;2.80;;;2.60;;
20525;SDS011;10421;49.142;9.232;2024-01-06T05:45:24;9.00;;;2.83;;
20525;SDS011;10421;49.142;9.232;2024-01-06T05:47:52;7.20;;;3.07;;
20525;SDS011;10421;49.142;9.232;2024-01-06T05:50:19;3.13;;;2.83;;
20525;SDS011;10421;49.142;9.232;2024-01-06T05:52:46;4.90;;;2.90;;
20525;SDS011;10421;49.142;9.232;2024-01-06T05:55:14;5.57;;;2.63;;
20525;SDS011;10421;49.142;9.232;2024-01-06T05:57:40;10.20;;;3.17;;
20525;SDS011;10421;49.142;9.232;2024-01-06T06:00:08;3.90;;;2.33;;
20525;SDS011;10421;49.142;9.232;2024-01-06T06:02:36;6.60;;;3.00;;
20525;SDS011;10421;49.142;9.232;2024-01-06T06:05:05;3.63;;;2.20;;
20525;SDS011;10421;49.142;9.232;2024-01-06T06:07:32;8.67;;;2.37;;
20525;SDS011;10421;49.142;9.232;2024-01-06T06:10:04;4.10;;;2.17;;
20525;SDS011;10421;49.142;9.232;2024-01-06T06:12:32;3.70;;;2.30;;
20525;SDS011;10421;49.142;9.232;2024-01-06T06:14:59;4.40;;;2.47;;
20525;SDS011;10421;49.142;9.232;2024-01-06T06:17:25;8.60;;;2.77;;
20525;SDS011;10421;49.142;9.232;2024-01-06T06:19:52;4.23;;;2.90;;
20525;SDS011;10421;49.142;9.232;2024-01-06T06:22:20;4.73;;;2.80;;
20525;SDS011;10421;49.142;9.232;2024-01-06T06:24:47;3.47;;;2.20;;
20525;SDS011;10421;49.142;9.232;2024-01-06T06:27:14;2.80;;;2.50;;
20525;SDS011;10421;49.142;9.232;2024-01-06T06:29:41;2.70;;;2.20;;
20525;SDS011;10421;49.142;9.232;2024-01-06T06:32:07;5.80;;;2.33;;
20525;SDS011;10421;49.142;9.232;2024-01-06T06:34:34;3.47;;;2.30;;
20525;SDS011;10421;49.142;9.232;2024-01-06T06:37:01;4.37;;;2.47;;
20525;SDS011;10421;49.142;9.232;2024-01-06T06:39:29;4.70;;;2.37;;
20525;SDS011;10421;49.142;9.232;2024-01-06T06:41:57;3.90;;;2.10;;
20525;SDS011;10421;49.142;9.232;2024-01-06T06:44:23;3.93;;;2.20;;
20525;SDS011;10421;49.142;9.232;2024-01-06T06:46:50;8.00;;;2.80;;
20525;SDS011;10421;49.142;9.232;2024-01-06T06:49:17;5.00;;;2.60;;
20525;SDS011;10421;49.142;9.232;2024-01-06T06:51:44;3.43;;;2.33;;
20525;SDS011;10421;49.142;9.232;2024-01-06T06:54:12;8.30;;;2.80;;
20525;SDS011;10421;49.142;9.232;2024-01-06T06:56:41;5.67;;;2.30;;
20525;SDS011;10421;49.142;9.232;2024-01-06T06:59:08;5.27;;;2.67;;
20525;SDS011;10421;49.142;9.232;2024-01-06T07:01:34;5.77;;;2.30;;
20525;SDS011;10421;49.142;9.232;2024-01-06T07:04:01;3.33;;;2.10;;
20525;SDS011;10421;49.142;9.232;2024-01-06T07:06:28;3.00;;;2.47;;
20525;SDS011;10421;49.142;9.232;2024-01-06T07:08:55;3.83;;;2.27;;
20525;SDS011;10421;49.142;9.232;2024-01-06T07:11:22;3.20;;;2.10;;
20525;SDS011;10421;49.142;9.232;2024-01-06T07:13:50;4.20;;;2.43;;
20525;SDS011;10421;49.142;9.232;2024-01-06T07:16:17;3.33;;;2.37;;
20525;SDS011;10421;49.142;9.232;2024-01-06T07:18:43;3.90;;;2.47;;
20525;SDS011;10421;49.142;9.232;2024-01-06T07:21:11;4.93;;;2.23;;
20525;SDS011;10421;49.142;9.232;2024-01-06T07:23:38;4.10;;;2.40;;
20525;SDS011;10421;49.142;9.232;2024-01-06T07:26:05;2.00;;;1.80;;
20525;SDS011;10421;49.142;9.232;2024-01-06T07:28:33;5.30;;;2.20;;
20525;SDS011;10421;49.142;9.232;2024-01-06T07:31:01;4.03;;;2.57;;
20525;SDS011;10421;49.142;9.232;2024-01-06T07:33:29;2.80;;;2.17;;
20525;SDS011;10421;49.142;9.232;2024-01-06T07:35:56;8.00;;;2.10;;
20525;SDS011;10421;49.142;9.232;2024-01-06T07:38:23;2.83;;;2.27;;
20525;SDS011;10421;49.142;9.232;2024-01-06T07:40:49;2.90;;;2.60;;
20525;SDS011;10421;49.142;9.232;2024-01-06T07:43:16;9.23;;;2.30;;
20525;SDS011;10421;49.142;9.232;2024-01-06T07:45:43;5.87;;;2.70;;
20525;SDS011;10421;49.142;9.232;2024-01-06T07:48:11;4.70;;;2.30;;
20525;SDS011;10421;49.142;9.232;2024-01-06T07:50:37;2.93;;;2.23;;
20525;SDS011;10421;49.142;9.232;2024-01-06T07:53:04;4.90;;;2.30;;
20525;SDS011;10421;49.142;9.232;2024-01-06T07:55:31;6.90;;;2.53;;
20525;SDS011;10421;49.142;9.232;2024-01-06T07:57:58;7.93;;;3.30;;
20525;SDS011;10421;49.142;9.232;2024-01-06T08:00:24;3.30;;;1.97;;
20525;SDS011;10421;49.142;9.232;2024-01-06T08:02:51;6.77;;;2.50;;
20525;SDS011;10421;49.142;9.232;2024-01-06T08:05:19;2.83;;;1.83;;
20525;SDS011;10421;49.142;9.232;2024-01-06T08:07:46;4.67;;;2.87;;
20525;SDS011;10421;49.142;9.232;2024-01-06T08:10:13;6.73;;;2.33;;
20525;SDS011;10421;49.142;9.232;2024-01-06T08:12:39;6.40;;;2.87;;
20525;SDS011;10421;49.142;9.232;2024-01-06T08:15:06;5.70;;;2.70;;
20525;SDS011;10421;49.142;9.232;2024-01-06T08:17:34;6.50;;;2.80;;
20525;SDS011;10421;49.142;9.232;2024-01-06T08:20:01;4.60;;;2.80;;
20525;SDS011;10421;49.142;9.232;2024-01-06T08:22:29;4.23;;;2.93;;
20525;SDS011;10421;49.142;9.232;2024-01-06T08:24:56;8.13;;;2.60;;
20525;SDS011;10421;49.142;9.232;2024-01-06T08:27:23;6.33;;;2.93;;
20525;SDS011;10421;49.142;9.232;2024-01-06T08:29:50;5.47;;;3.47;;
20525;SDS011;10421;49.142;9.232;2024-01-06T08:32:19;5.47;;;3.00;;
20525;SDS011;10421;49.142;9.232;2024-01-06T08:34:49;6.20;;;3.30;;
20525;SDS011;10421;49.142;9.232;2024-01-06T08:37:15;4.83;;;3.20;;
20525;SDS011;10421;49.142;9.232;2024-01-06T08:39:43;4.77;;;2.90;;
20525;SDS011;10421;49.142;9.232;2024-01-06T08:42:11;5.73;;;3.30;;
20525;SDS011;10421;49.142;9.232;2024-01-06T08:44:52;5.13;;;3.30;;
20525;SDS011;10421;49.142;9.232;2024-01-06T08:47:18;6.20;;;2.77;;
20525;SDS011;10421;49.142;9.232;2024-01-06T08:49:47;4.50;;;2.97;;
20525;SDS011;10421;49.142;9.232;2024-01-06T08:52:14;12.07;;;3.03;;
20525;SDS011;10421;49.142;9.232;2024-01-06T08:54:40;3.57;;;2.47;;
20525;SDS011;10421;49.142;9.232;2024-01-06T08:57:08;4.27;;;3.20;;
20525;SDS011;10421;49.142;9.232;2024-01-06T08:59:35;3.70;;;2.87;;
20525;SDS011;10421;49.142;9.232;2024-01-06T09:02:02;4.80;;;3.20;;
20525;SDS011;10421;49.142;9.232;2024-01-06T09:04:29;5.50;;;3.67;;
20525;SDS011;10421;49.142;9.232;2024-01-06T09:06:56;8.43;;;3.33;;
20525;SDS011;10421;49.142;9.232;2024-01-06T09:09:23;6.70;;;3.17;;
20525;SDS011;10421;49.142;9.232;2024-01-06T09:11:49;5.27;;;3.40;;
20525;SDS011;10421;49.142;9.232;2024-01-06T09:14:18;4.30;;;3.07;;
20525;SDS011;10421;49.142;9.232;2024-01-06T09:16:44;5.53;;;3.20;;
20525;SDS011;10421;49.142;9.232;2024-01-06T09:19:11;5.73;;;3.17;;
20525;SDS011;10421;49.142;9.232;2024-01-06T09:21:38;4.60;;;3.00;;
20525;SDS011;10421;49.142;9.232;2024-01-06T09:24:05;4.53;;;3.40;;
20525;SDS011;10421;49.142;9.232;2024-01-06T09:26:32;6.10;;;3.60;;
20525;SDS011;10421;49.142;9.232;2024-01-06T09:28:59;5.10;;;3.33;;
20525;SDS011;10421;49.142;9.232;2024-01-06T09:31:27;5.93;;;3.23;;
20525;SDS011;10421;49.142;9.232;2024-01-06T09:33:54;4.60;;;3.10;;
20525;SDS011;10421;49.142;9.232;2024-01-06T09:36:21;7.40;;;3.17;;
20525;SDS011;10421;49.142;9.232;2024-01-06T09:38:48;5.53;;;3.53;;
20525;SDS011;10421;49.142;9.232;2024-01-06T09:41:14;11.67;;;3.80;;
20525;SDS011;10421;49.142;9.232;2024-01-06T09:43:41;5.80;;;3.80;;
20525;SDS011;10421;49.142;9.232;2024-01-06T09:46:10;4.03;;;3.20;;
20525;SDS011;10421;49.142;9.232;2024-01-06T09:48:45;6.97;;;3.90;;
20525;SDS011;10421;49.142;9.232;2024-01-06T09:51:13;6.50;;;4.00;;
20525;SDS011;10421;49.142;9.232;2024-01-06T09:53:42;6.23;;;3.97;;
20525;SDS011;10421;49.142;9.232;2024-01-06T09:56:13;7.57;;;4.37;;
20525;SDS011;10421;49.142;9.232;2024-01-06T09:58:41;5.17;;;3.63;;
20525;SDS011;10421;49.142;9.232;2024-01-06T10:01:09;8.77;;;3.80;;
20525;SDS011;10421;49.142;9.232;2024-01-06T10:03:37;7.10;;;4.00;;
20525;SDS011;10421;49.142;9.232;2024-01-06T10:06:06;4.77;;;3.60;;
20525;SDS011;10421;49.142;9.232;2024-01-06T10:08:34;5.73;;;4.03;;
20525;SDS011;10421;49.142;9.232;2024-01-06T10:11:01;9.07;;;4.40;;
20525;SDS011;10421;49.142;9.232;2024-01-06T10:13:29;6.50;;;4.10;;
20525;SDS011;10421;49.142;9.232;2024-01-06T10:15:56;13.07;;;6.60;;
20525;SDS011;10421;49.142;9.232;2024-01-06T10:18:24;5.30;;;4.10;;
20525;SDS011;10421;49.142;9.232;2024-01-06T10:20:52;7.80;;;4.20;;
20525;SDS011;10421;49.142;9.232;2024-01-06T10:23:20;6.40;;;3.80;;
20525;SDS011;10421;49.142;9.232;2024-01-06T10:25:49;6.83;;;3.87;;
20525;SDS011;10421;49.142;9.232;2024-01-06T10:28:18;8.17;;;4.47;;
20525;SDS011;10421;49.142;9.232;2024-01-06T10:30:46;9.03;;;4.80;;
20525;SDS011;10421;49.142;9.232;2024-01-06T10:33:13;10.47;;;4.90;;
20525;SDS011;10421;49.142;9.232;2024-01-06T10:35:40;8.90;;;4.60;;
20525;SDS011;10421;49.142;9.232;2024-01-06T10:38:07;8.03;;;4.50;;
20525;SDS011;10421;49.142;9.232;2024-01-06T10:40:35;10.50;;;5.03;;
20525;SDS011;10421;49.142;9.232;2024-01-06T10:43:01;8.10;;;4.30;;
20525;SDS011;10421;49.142;9.232;2024-01-06T10:45:29;9.97;;;4.60;;
20525;SDS011;10421;49.142;9.232;2024-01-06T10:47:56;10.43;;;4.87;;
20525;SDS011;10421;49.142;9.232;2024-01-06T10:50:23;8.27;;;4.90;;
20525;SDS011;10421;49.142;9.232;2024-01-06T10:52:50;8.30;;;4.67;;
20525;SDS011;10421;49.142;9.232;2024-01-06T10:55:19;9.03;;;5.40;;
20525;SDS011;10421;49.142;9.232;2024-01-06T10:57:48;8.63;;;5.10;;
20525;SDS011;10421;49.142;9.232;2024-01-06T11:00:17;8.97;;;4.50;;
20525;SDS011;10421;49.142;9.232;2024-01-06T11:02:44;11.40;;;4.67;;
20525;SDS011;10421;49.142;9.232;2024-01-06T13:08:01;10.60;;;5.40;;
20525;SDS011;10421;49.142;9.232;2024-01-06T13:10:29;13.03;;;6.50;;
20525;SDS011;10421;49.142;9.232;2024-01-06T13:12:56;9.53;;;6.20;;
20525;SDS011;10421;49.142;9.232;2024-01-06T13:15:24;8.60;;;6.10;;
20525;SDS011;10421;49.142;9.232;2024-01-06T13:17:52;9.93;;;6.57;;
20525;SDS011;10421;49.142;9.232;2024-01-06T13:20:19;12.43;;;6.57;;
20525;SDS011;10421;49.142;9.232;2024-01-06T13:22:47;10.47;;;6.43;;
20525;SDS011;10421;49.142;9.232;2024-01-06T13:25:17;10.87;;;6.93;;
20525;SDS011;10421;49.142;9.232;2024-01-06T13:27:45;12.47;;;6.57;;
20525;SDS011;10421;49.142;9.232;2024-01-06T13:30:12;11.57;;;6.27;;
20525;SDS011;10421;49.142;9.232;2024-01-06T13:32:39;9.63;;;6.23;;
20525;SDS011;10421;49.142;9.232;2024-01-06T13:35:06;13.40;;;6.50;;
20525;SDS011;10421;49.142;9.232;2024-01-06T13:37:36;10.37;;;6.80;;
20525;SDS011;10421;49.142;9.232;2024-01-06T13:40:03;12.37;;;7.23;;
20525;SDS011;10421;49.142;9.232;2024-01-06T13:42:33;10.87;;;6.00;;
20525;SDS011;10421;49.142;9.232;2024-01-06T13:45:01;9.83;;;5.60;;
20525;SDS011;10421;49.142;9.232;2024-01-06T13:47:28;10.27;;;5.80;;
20525;SDS011;10421;49.142;9.232;2024-01-06T13:49:56;11.47;;;6.20;;
20525;SDS011;10421;49.142;9.232;2024-01-06T13:52:23;8.93;;;6.40;;
20525;SDS011;10421;49.142;9.232;2024-01-06T13:54:50;11.07;;;6.37;;
20525;SDS011;10421;49.142;9.232;2024-01-06T13:57:18;11.97;;;6.20;;
20525;SDS011;10421;49.142;9.232;2024-01-06T13:59:46;9.10;;;5.53;;
20525;SDS011;10421;49.142;9.232;2024-01-06T14:02:13;12.27;;;6.90;;
20525;SDS011;10421;49.142;9.232;2024-01-06T14:04:40;10.20;;;6.70;;
20525;SDS011;10421;49.142;9.232;2024-01-06T14:07:07;9.73;;;6.40;;
20525;SDS011;10421;49.142;9.232;2024-01-06T14:09:35;10.97;;;7.20;;
20525;SDS011;10421;49.142;9.232;2024-01-06T14:12:02;9.73;;;6.17;;
20525;SDS011;10421;49.142;9.232;2024-01-06T14:14:30;9.40;;;6.10;;
20525;SDS011;10421;49.142;9.232;2024-01-06T14:16:58;10.53;;;6.77;;
20525;SDS011;10421;49.142;9.232;2024-01-06T14:19:25;9.57;;;5.07;;
20525;SDS011;10421;49.142;9.232;2024-01-06T14:21:52;11.13;;;5.77;;
20525;SDS011;10421;49.142;9.232;2024-01-06T14:24:19;10.80;;;6.20;;
20525;SDS011;10421;49.142;9.232;2024-01-06T14:26:48;13.17;;;5.93;;
20525;SDS011;10421;49.142;9.232;2024-01-06T14:29:15;9.97;;;6.13;;
20525;SDS011;10421;49.142;9.232;2024-01-06T14:31:42;11.37;;;6.17;;
20525;SDS011;10421;49.142;9.232;2024-01-06T14:34:10;10.20;;;6.10;;
20525;SDS011;10421;49.142;9.232;2024-01-06T14:36:37;10.23;;;5.50;;
20525;SDS011;10421;49.142;9.232;2024-01-06T14:39:03;10.30;;;6.13;;
20525;SDS011;10421;49.142;9.232;2024-01-06T14:41:31;8.07;;;5.87;;
20525;SDS011;10421;49.142;9.232;2024-01-06T14:43:58;10.70;;;6.80;;
20525;SDS011;10421;49.142;9.232;2024-01-06T14:46:25;10.50;;;5.13;;
20525;SDS011;10421;49.142;9.232;2024-01-06T14:48:52;8.70;;;5.43;;
20525;SDS011;10421;49.142;9.232;2024-01-06T14:51:21;7.77;;;5.47;;
20525;SDS011;10421;49.142;9.232;2024-01-06T14:53:48;11.40;;;5.57;;
20525;SDS011;10421;49.142;9.232;2024-01-06T14:56:14;9.77;;;5.70;;
20525;SDS011;10421;49.142;9.232;2024-01-06T14:58:41;7.40;;;5.50;;
20525;SDS011;10421;49.142;9.232;2024-01-06T15:01:08;10.17;;;6.10;;
20525;SDS011;10421;49.142;9.232;2024-01-06T15:03:34;10.77;;;5.83;;
20525;SDS011;10421;49.142;9.232;2024-01-06T15:06:01;9.57;;;5.63;;
20525;SDS011;10421;49.142;9.232;2024-01-06T15:08:29;9.57;;;6.43;;
20525;SDS011;10421;49.142;9.232;2024-01-06T15:10:56;9.87;;;6.37;;
20525;SDS011;10421;49.142;9.232;2024-01-06T15:13:23;10.53;;;5.70;;
20525;SDS011;10421;49.142;9.232;2024-01-06T15:15:50;11.23;;;6.10;;
20525;SDS011;10421;49.142;9.232;2024-01-06T15:18:16;11.37;;;6.13;;
20525;SDS011;10421;49.142;9.232;2024-01-06T15:20:45;11.30;;;6.30;;
20525;SDS011;10421;49.142;9.232;2024-01-06T15:23:12;13.30;;;6.00;;
20525;SDS011;10421;49.142;9.232;2024-01-06T15:25:40;10.10;;;6.27;;
20525;SDS011;10421;49.142;9.232;2024-01-06T15:28:07;9.10;;;5.90;;
20525;SDS011;10421;49.142;9.232;2024-01-06T15:30:34;9.43;;;5.43;;
20525;SDS011;10421;49.142;9.232;2024-01-06T15:33:01;9.70;;;6.20;;
20525;SDS011;10421;49.142;9.232;2024-01-06T15:35:28;9.63;;;5.77;;
20525;SDS011;10421;49.142;9.232;2024-01-06T15:37:55;12.73;;;6.20;;
20525;SDS011;10421;49.142;9.232;2024-01-06T15:40:21;11.17;;;6.10;;
20525;SDS011;10421;49.142;9.232;2024-01-06T15:42:49;8.40;;;6.30;;
20525;SDS011;10421;49.142;9.232;2024-01-06T15:45:16;11.97;;;5.80;;
20525;SDS011;10421;49.142;9.232;2024-01-06T15:47:43;8.27;;;5.50;;
20525;SDS011;10421;49.142;9.232;2024-01-06T15:50:09;11.50;;;6.87;;
20525;SDS011;10421;49.142;9.232;2024-01-06T15:52:36;10.27;;;6.47;;
20525;SDS011;10421;49.142;9.232;2024-01-06T15:55:05;11.60;;;6.93;;
20525;SDS011;10421;49.142;9.232;2024-01-06T15:57:32;11.20;;;6.70;;
20525;SDS011;10421;49.142;9.232;2024-01-06T16:00:00;12.90;;;6.30;;
20525;SDS011;10421;49.142;9.232;2024-01-06T16:02:27;10.17;;;6.03;;
20525;SDS011;10421;49.142;9.232;2024-01-06T16:04:53;11.50;;;6.60;;
20525;SDS011;10421;49.142;9.232;2024-01-06T16:07:20;11.93;;;6.67;;
20525;SDS011;10421;49.142;9.232;2024-01-06T16:09:47;12.07;;;6.33;;
20525;SDS011;10421;49.142;9.232;2024-01-06T16:12:14;12.10;;;7.10;;
20525;SDS011;10421;49.142;9.232;2024-01-06T16:14:41;9.93;;;6.17;;
20525;SDS011;10421;49.142;9.232;2024-01-06T16:17:09;11.67;;;6.90;;
20525;SDS011;10421;49.142;9.232;2024-01-06T16:19:36;13.33;;;7.33;;
20525;SDS011;10421;49.142;9.232;2024-01-06T16:22:03;10.30;;;6.00;;
20525;SDS011;10421;49.142;9.232;2024-01-06T16:24:30;10.60;;;6.10;;
20525;SDS011;10421;49.142;9.232;2024-01-06T16:26:56;11.50;;;6.40;;
20525;SDS011;10421;49.142;9.232;2024-01-06T16:29:23;11.20;;;6.30;;
20525;SDS011;10421;49.142;9.232;2024-01-06T16:31:49;10.97;;;6.20;;
20525;SDS011;10421;49.142;9.232;2024-01-06T16:34:18;12.50;;;6.47;;
20525;SDS011;10421;49.142;9.232;2024-01-06T16:36:45;10.00;;;6.53;;
20525;SDS011;10421;49.142;9.232;2024-01-06T16:39:12;10.70;;;6.77;;
20525;SDS011;10421;49.142;9.232;2024-01-06T16:41:39;10.80;;;6.60;;
20525;SDS011;10421;49.142;9.232;2024-01-06T16:44:06;13.10;;;7.10;;
20525;SDS011;10421;49.142;9.232;2024-01-06T16:46:33;13.67;;;7.80;;
20525;SDS011;10421;49.142;9.232;2024-01-06T16:49:00;11.20;;;7.10;;